Time;durP1;ratioP1;P1;durP2;ratioP2;P2;SDS_P1;SDS_P2;PMS_P1;PMS_P2;Temp;Humidity;BMP_temperature;BMP_pressure;BME280_temperature;BME280_humidity;BME280_pressure;Samples;Min_cycle;Max_cycle;Signal;HPM_P1;HPM_P2
2023/03/27 00:01:10;;;;;;;2.27;2.10;;;;;;;11.43;62.69;97643.63;7080109;27;20214;-78
2023/03/27 00:04:33;;;;;;;3.50;2.40;;;;;;;11.22;63.64;97648.84;7080147;27;20412;-79
2023/03/27 00:07:55;;;;;;;2.67;2.47;;;;;;;11.60;63.47;97668.00;7080963;27;20261;-79
2023/03/27 00:11:17;;;;;;;2.73;2.50;;;;;;;11.38;63.89;97665.09;7080075;27;20212;-78
2023/03/27 00:14:39;;;;;;;2.70;2.50;;;;;;;11.28;64.91;97666.78;7080605;27;20564;-78
2023/03/27 00:18:02;;;;;;;2.70;2.50;;;;;;;11.52;63.72;97652.16;7080334;27;20597;-79
2023/03/27 00:21:25;;;;;;;3.13;2.40;;;;;;;11.64;63.81;97679.97;7079810;27;20203;-78
2023/03/27 00:24:47;;;;;;;2.53;2.33;;;;;;;11.37;64.71;97676.97;7080232;27;20288;-78
2023/03/27 00:28:08;;;;;;;2.63;2.10;;;;;;;11.80;63.46;97673.84;7080564;27;20213;-79
2023/03/27 00:31:30;;;;;;;2.57;2.30;;;;;;;11.58;64.21;97683.59;7079501;28;20259;-79
2023/03/27 00:34:51;;;;;;;2.60;2.40;;;;;;;11.44;64.06;97672.25;7080398;28;20204;-79
2023/03/27 00:38:15;;;;;;;2.50;2.30;;;;;;;11.51;64.06;97685.63;7079863;28;20203;-78
2023/03/27 00:41:36;;;;;;;2.60;2.40;;;;;;;11.02;65.25;97689.66;7075793;28;20693;-78
2023/03/27 00:44:58;;;;;;;2.40;2.20;;;;;;;11.35;65.01;97683.66;7055222;28;20208;-78
2023/03/27 00:48:20;;;;;;;2.20;2.10;;;;;;;11.30;64.70;97697.84;7052684;28;20204;-78
2023/03/27 00:51:42;;;;;;;2.73;2.53;;;;;;;11.37;64.33;97711.22;7054493;28;20228;-78
2023/03/27 00:55:08;;;;;;;3.00;2.80;;;;;;;11.29;64.28;97716.97;7057752;27;20272;-78
2023/03/27 00:58:32;;;;;;;2.60;2.40;;;;;;;10.86;64.70;97717.31;7057733;28;20389;-78
2023/03/27 01:01:54;;;;;;;2.70;2.50;;;;;;;10.86;64.33;97733.50;7056640;28;20314;-77
2023/03/27 01:05:18;;;;;;;2.47;2.37;;;;;;;10.73;65.63;97741.81;7056921;27;20228;-77
2023/03/27 01:08:43;;;;;;;2.17;2.07;;;;;;;10.66;64.20;97751.88;7057454;28;20659;-78
2023/03/27 01:12:15;;;;;;;1.97;1.87;;;;;;;10.30;63.65;97757.38;7056009;28;20288;-78
2023/03/27 01:15:40;;;;;;;1.90;1.80;;;;;;;10.05;64.72;97755.88;7057081;28;20395;-77
2023/03/27 01:19:16;;;;;;;1.93;1.83;;;;;;;9.93;62.56;97781.88;7055536;27;20204;-78
2023/03/27 01:22:54;;;;;;;1.60;1.60;;;;;;;10.11;62.37;97789.97;7063927;27;20220;-77
2023/03/27 01:26:50;;;;;;;1.90;1.70;;;;;;;10.08;62.06;97796.63;7056256;28;20261;-78
2023/03/27 01:30:18;;;;;;;1.90;1.80;;;;;;;10.03;62.59;97806.41;7030975;28;20823;-78
2023/03/27 01:34:03;;;;;;;2.10;2.00;;;;;;;9.79;61.94;97801.91;7056429;28;20716;-78
2023/03/27 01:37:40;;;;;;;2.50;1.90;;;;;;;9.44;63.03;97812.44;7056305;28;20200;-78
2023/03/27 01:41:08;;;;;;;2.23;2.13;;;;;;;9.57;62.00;97825.75;7055512;28;20207;-77
2023/03/27 01:44:33;;;;;;;2.57;2.37;;;;;;;9.48;62.88;97824.41;7055941;28;20705;-78
2023/03/27 01:47:59;;;;;;;2.37;2.17;;;;;;;8.96;62.97;97831.28;7056009;28;20204;-78
2023/03/27 01:51:23;;;;;;;3.20;2.50;;;;;;;8.94;63.08;97850.31;7054821;28;20216;-78
2023/03/27 01:54:49;;;;;;;2.67;2.47;;;;;;;8.74;63.61;97862.22;7055578;28;20241;-78
2023/03/27 01:58:13;;;;;;;3.57;3.30;;;;;;;9.12;62.69;97871.88;7055637;28;20189;-78
2023/03/27 02:01:37;;;;;;;2.60;2.43;;;;;;;9.08;63.61;97886.78;7054654;28;20590;-78
2023/03/27 02:05:01;;;;;;;3.30;2.57;;;;;;;9.84;61.16;97890.88;7055190;28;20268;-78
2023/03/27 02:08:25;;;;;;;2.90;2.70;;;;;;;9.01;62.35;97877.16;7055024;28;20369;-78
2023/03/27 02:11:50;;;;;;;3.60;3.30;;;;;;;9.59;61.25;97873.97;7054711;28;20582;-78
2023/03/27 02:15:15;;;;;;;2.77;2.57;;;;;;;9.40;61.22;97909.94;7065952;27;20269;-77
2023/03/27 02:18:40;;;;;;;3.60;3.30;;;;;;;8.92;62.32;97924.13;7083508;27;20201;-78
2023/03/27 02:22:02;;;;;;;2.90;2.60;;;;;;;9.34;61.45;97943.91;7082598;27;20234;-78
2023/03/27 02:25:25;;;;;;;3.23;2.93;;;;;;;8.93;62.22;97951.63;7083252;27;20212;-78
2023/03/27 02:29:01;;;;;;;3.80;3.10;;;;;;;9.01;62.38;97958.59;7083418;27;20215;-78
2023/03/27 02:32:33;;;;;;;3.20;3.00;;;;;;;9.34;61.21;97964.63;7082639;27;20227;-78
2023/03/27 02:35:59;;;;;;;4.10;3.07;;;;;;;9.41;61.29;97965.38;7068842;27;20180;-78
2023/03/27 02:39:24;;;;;;;3.23;2.93;;;;;;;9.36;61.92;97975.97;7083187;27;20241;-78
2023/03/27 02:42:55;;;;;;;3.30;3.10;;;;;;;9.69;62.13;97992.72;7081665;27;20662;-78
2023/03/27 02:46:21;;;;;;;3.47;3.17;;;;;;;9.58;61.70;97982.66;7082424;27;20211;-78
2023/03/27 02:49:48;;;;;;;3.23;2.93;;;;;;;9.36;62.29;98002.88;7081938;27;20217;-78
2023/03/27 02:53:11;;;;;;;3.00;2.80;;;;;;;9.48;61.90;98009.19;7081930;27;20860;-78
2023/03/27 02:56:37;;;;;;;3.17;2.90;;;;;;;9.09;61.97;98004.88;7082202;27;20287;-78
2023/03/27 03:00:05;;;;;;;3.30;2.97;;;;;;;9.34;62.68;98024.59;7081854;27;20228;-77
2023/03/27 03:03:32;;;;;;;4.43;2.80;;;;;;;9.62;61.20;98040.38;7089527;27;20242;-78
2023/03/27 03:06:55;;;;;;;3.50;3.20;;;;;;;9.20;62.43;98041.88;7083425;27;20217;-78
2023/03/27 03:10:16;;;;;;;4.57;3.20;;;;;;;9.35;62.34;98041.56;7080809;27;20204;-78
2023/03/27 03:13:38;;;;;;;6.40;3.97;;;;;;;9.02;62.96;98059.72;7080714;27;20356;-78
2023/03/27 03:16:59;;;;;;;4.40;3.20;;;;;;;9.32;63.52;98082.34;7081674;27;20567;-78
2023/03/27 03:20:22;;;;;;;5.30;4.10;;;;;;;9.20;62.51;98087.59;7080709;27;20259;-78
2023/03/27 03:23:46;;;;;;;5.93;3.13;;;;;;;8.59;62.93;98106.16;7081093;27;20251;-78
2023/03/27 03:27:08;;;;;;;6.53;3.83;;;;;;;8.43;63.52;98106.63;7083156;27;20232;-78
2023/03/27 03:30:30;;;;;;;4.57;3.00;;;;;;;8.14;61.44;98112.38;7087896;27;20615;-80
2023/03/27 03:33:51;;;;;;;5.83;3.20;;;;;;;8.10;60.74;98144.19;7090221;27;20291;-80
2023/03/27 03:37:13;;;;;;;4.80;3.07;;;;;;;8.22;60.86;98150.63;7089516;27;20263;-80
2023/03/27 03:40:36;;;;;;;7.87;3.57;;;;;;;8.07;60.68;98160.69;7087847;27;20231;-78
2023/03/27 03:43:57;;;;;;;7.43;3.50;;;;;;;7.91;61.18;98179.88;7087569;27;20318;-80
2023/03/27 03:47:19;;;;;;;5.83;3.30;;;;;;;7.98;60.91;98183.41;7087345;27;20309;-79
2023/03/27 03:50:40;;;;;;;7.70;3.27;;;;;;;7.63;61.52;98192.59;7086067;27;20286;-78
2023/03/27 03:54:04;;;;;;;5.27;3.13;;;;;;;8.09;60.31;98203.44;7086675;27;20391;-80
2023/03/27 03:57:27;;;;;;;7.50;3.27;;;;;;;8.20;59.23;98206.38;7086284;27;20263;-80
2023/03/27 04:00:48;;;;;;;8.43;3.57;;;;;;;8.28;58.73;98211.56;7084971;27;20543;-80
2023/03/27 04:04:10;;;;;;;13.33;5.30;;;;;;;8.20;58.40;98219.00;7085825;27;20255;-80
2023/03/27 04:07:31;;;;;;;4.17;3.00;;;;;;;8.65;58.23;98237.81;7083548;27;20227;-78
2023/03/27 04:10:53;;;;;;;6.27;3.10;;;;;;;8.28;58.75;98241.09;7083086;27;20233;-79
2023/03/27 04:14:15;;;;;;;6.60;3.47;;;;;;;8.34;59.18;98244.81;7095315;27;20308;-79
2023/03/27 04:17:37;;;;;;;7.27;3.53;;;;;;;8.53;57.96;98250.22;7087566;27;20233;-80
2023/03/27 04:20:59;;;;;;;9.53;3.93;;;;;;;8.53;58.94;98266.34;7087051;27;20802;-80
2023/03/27 04:24:22;;;;;;;10.07;4.07;;;;;;;8.30;57.89;98265.09;7087052;27;20302;-78
2023/03/27 04:27:44;;;;;;;6.10;3.33;;;;;;;7.79;59.04;98270.03;7085731;27;20228;-78
2023/03/27 04:31:09;;;;;;;10.63;4.07;;;;;;;8.10;58.52;98289.16;7087071;27;20731;-79
2023/03/27 04:34:30;;;;;;;5.60;3.70;;;;;;;8.25;58.67;98294.41;7073320;27;20230;-78
2023/03/27 04:37:52;;;;;;;6.37;3.53;;;;;;;8.24;57.82;98312.34;7072872;28;20214;-78
2023/03/27 04:41:13;;;;;;;12.57;4.50;;;;;;;8.46;57.59;98321.94;7079502;28;20207;-78
2023/03/27 04:44:35;;;;;;;11.90;4.57;;;;;;;8.07;59.07;98337.06;7067527;28;20861;-79
2023/03/27 04:47:58;;;;;;;12.73;4.63;;;;;;;7.45;60.30;98339.84;7067447;28;20594;-78
2023/03/27 04:51:19;;;;;;;8.40;4.40;;;;;;;7.84;60.72;98358.00;7060372;28;20210;-78
2023/03/27 04:54:41;;;;;;;14.87;5.70;;;;;;;8.19;59.42;98362.31;7072725;28;20199;-79
2023/03/27 04:58:03;;;;;;;5.83;4.40;;;;;;;7.63;60.94;98366.97;7065984;28;20334;-78
2023/03/27 05:01:25;;;;;;;8.83;4.10;;;;;;;7.60;58.37;98386.13;7068041;28;20291;-77
2023/03/27 05:04:48;;;;;;;9.53;3.73;;;;;;;7.89;58.33;98393.94;7050648;28;20204;-78
2023/03/27 05:08:09;;;;;;;11.93;4.50;;;;;;;8.32;58.22;98408.84;7050796;28;20239;-78
2023/03/27 05:11:31;;;;;;;11.90;4.33;;;;;;;8.18;59.40;98412.47;7051441;28;20659;-78
2023/03/27 05:14:52;;;;;;;12.30;4.47;;;;;;;7.95;59.66;98420.00;7053976;28;20207;-78
2023/03/27 05:18:14;;;;;;;8.07;3.87;;;;;;;8.51;57.86;98436.81;7057278;28;20216;-78
2023/03/27 05:21:37;;;;;;;10.97;3.70;;;;;;;8.18;58.23;98442.03;7064944;28;20204;-79
2023/03/27 05:24:59;;;;;;;11.83;4.00;;;;;;;8.06;58.26;98446.28;7064552;28;20199;-78
2023/03/27 05:28:20;;;;;;;14.07;4.23;;;;;;;8.23;58.26;98461.09;7085095;28;20282;-78
2023/03/27 05:31:42;;;;;;;13.67;4.07;;;;;;;8.41;56.78;98474.81;7078685;28;20636;-78
2023/03/27 05:35:04;;;;;;;13.03;3.87;;;;;;;8.53;57.32;98481.28;7078478;28;20208;-78
2023/03/27 05:38:27;;;;;;;12.17;4.23;;;;;;;8.61;56.83;98489.16;7075883;27;20240;-78
2023/03/27 05:41:48;;;;;;;5.93;3.77;;;;;;;8.33;56.08;98509.06;7056396;27;20306;-79
2023/03/27 05:45:11;;;;;;;9.23;3.53;;;;;;;8.04;55.91;98502.03;7079533;27;20264;-79
2023/03/27 05:48:32;;;;;;;10.73;4.20;;;;;;;7.85;56.50;98508.06;7088721;27;20222;-79
2023/03/27 05:51:54;;;;;;;10.10;4.10;;;;;;;8.28;56.44;98516.88;7086932;27;20384;-79
2023/03/27 05:55:17;;;;;;;8.40;3.20;;;;;;;7.81;56.14;98530.16;7087634;27;20726;-77
2023/03/27 05:58:38;;;;;;;8.60;3.23;;;;;;;7.67;55.83;98541.81;7085010;27;20679;-79
2023/03/27 06:02:00;;;;;;;9.07;3.67;;;;;;;7.95;55.45;98540.78;7060097;27;20240;-79
2023/03/27 06:05:21;;;;;;;10.77;3.40;;;;;;;7.52;55.74;98568.69;7087135;27;20309;-80
2023/03/27 06:08:43;;;;;;;12.60;3.57;;;;;;;7.98;54.22;98569.09;7085587;27;20223;-78
2023/03/27 06:12:06;;;;;;;5.70;3.23;;;;;;;7.18;55.60;98578.44;7084308;27;20689;-79
2023/03/27 06:15:27;;;;;;;5.63;3.43;;;;;;;7.41;54.54;98552.25;7085167;27;20333;-83
2023/03/27 06:18:49;;;;;;;9.17;3.37;;;;;;;7.21;55.43;98594.97;7084366;27;20673;-79
2023/03/27 06:22:11;;;;;;;10.97;3.20;;;;;;;7.54;54.16;98603.38;7083880;27;20656;-78
2023/03/27 06:25:34;;;;;;;9.17;3.73;;;;;;;7.44;54.12;98616.25;7084651;27;20241;-80
2023/03/27 06:28:57;;;;;;;10.33;3.87;;;;;;;7.30;55.32;98631.38;7083042;27;20227;-78
2023/03/27 06:32:18;;;;;;;10.60;3.40;;;;;;;7.45;54.50;98640.22;7082051;27;20325;-78
2023/03/27 06:35:40;;;;;;;12.37;3.93;;;;;;;7.74;52.89;98641.97;7074302;27;20277;-78
2023/03/27 06:39:03;;;;;;;11.07;4.80;;;;;;;7.39;54.60;98637.44;7080735;27;20223;-83
2023/03/27 06:42:25;;;;;;;10.47;3.67;;;;;;;7.68;53.13;98654.31;7067652;27;20296;-77
2023/03/27 06:45:49;;;;;;;13.43;3.63;;;;;;;7.32;53.47;98661.50;7079097;27;20204;-78
2023/03/27 06:49:11;;;;;;;6.43;3.20;;;;;;;7.29;53.09;98671.78;7080316;27;20226;-78
2023/03/27 06:52:32;;;;;;;4.40;3.37;;;;;;;7.51;53.18;98677.03;7085155;27;20301;-77
2023/03/27 06:55:54;;;;;;;9.23;3.33;;;;;;;7.12;52.90;98684.56;7090872;27;20200;-76
2023/03/27 06:59:16;;;;;;;8.80;4.00;;;;;;;6.60;53.59;98669.59;7079216;27;20202;-80
2023/03/27 07:02:38;;;;;;;8.50;4.10;;;;;;;7.45;53.47;98704.59;7080595;27;20234;-77
2023/03/27 07:06:00;;;;;;;4.47;3.07;;;;;;;7.02;52.92;98713.50;7085309;27;20614;-77
2023/03/27 07:09:22;;;;;;;6.07;3.30;;;;;;;7.45;52.38;98712.63;7110274;27;20589;-77
2023/03/27 07:12:45;;;;;;;8.97;3.40;;;;;;;7.72;52.19;98719.16;7081191;27;20228;-77
2023/03/27 07:16:07;;;;;;;8.63;4.27;;;;;;;7.57;51.74;98721.88;7053251;28;20263;-77
2023/03/27 07:19:30;;;;;;;9.87;3.77;;;;;;;7.98;51.64;98722.13;7052746;28;20208;-77
2023/03/27 07:22:52;;;;;;;5.20;3.10;;;;;;;7.47;51.03;98702.53;7054365;28;20323;-77
2023/03/27 07:26:13;;;;;;;7.00;3.30;;;;;;;7.88;50.80;98751.94;7053324;28;20208;-77
2023/03/27 07:29:36;;;;;;;12.57;3.50;;;;;;;7.14;51.97;98754.91;7052003;28;20232;-77
2023/03/27 07:32:57;;;;;;;6.90;3.43;;;;;;;7.55;51.71;98750.72;7053712;28;20232;-77
2023/03/27 07:36:21;;;;;;;5.83;3.30;;;;;;;7.29;51.79;98773.66;7053702;28;20208;-77
2023/03/27 07:39:42;;;;;;;5.67;2.70;;;;;;;7.28;51.51;98778.22;7051664;28;20658;-77
2023/03/27 07:43:05;;;;;;;10.23;3.60;;;;;;;7.54;50.32;98781.25;7060884;27;20309;-77
2023/03/27 07:46:27;;;;;;;12.30;3.70;;;;;;;7.74;50.39;98776.13;7080761;27;20200;-77
2023/03/27 07:49:49;;;;;;;6.70;3.00;;;;;;;7.75;49.71;98788.53;7081281;27;20231;-77
2023/03/27 07:53:12;;;;;;;8.13;3.27;;;;;;;7.85;49.87;98733.53;7052325;27;20259;-77
2023/03/27 07:56:34;;;;;;;8.80;3.33;;;;;;;8.09;48.45;98803.00;7051592;28;20236;-80
2023/03/27 07:59:56;;;;;;;7.03;3.80;;;;;;;8.49;48.59;98798.91;7051192;28;20197;-77
2023/03/27 08:03:19;;;;;;;10.10;3.27;;;;;;;8.52;48.38;98810.09;7054826;27;20222;-77
2023/03/27 08:06:41;;;;;;;8.60;3.57;;;;;;;9.02;46.99;98837.66;7079947;27;20237;-77
2023/03/27 08:10:05;;;;;;;5.53;3.10;;;;;;;8.46;46.83;98813.56;7079143;27;20199;-77
2023/03/27 08:13:26;;;;;;;7.70;2.60;;;;;;;8.70;45.89;98833.81;7079403;27;20730;-77
2023/03/27 08:16:48;;;;;;;8.03;3.13;;;;;;;8.87;46.04;98817.25;7074835;27;20251;-78
2023/03/27 08:20:13;;;;;;;3.03;2.60;;;;;;;8.49;45.15;98831.16;7079524;27;20737;-78
2023/03/27 08:23:36;;;;;;;7.83;3.17;;;;;;;9.50;44.32;98817.91;7083362;27;20230;-78
2023/03/27 08:26:59;;;;;;;6.93;3.30;;;;;;;10.09;43.89;98842.50;7080602;27;20238;-77
2023/03/27 08:30:22;;;;;;;6.93;3.13;;;;;;;10.23;43.26;98855.81;7074052;27;20712;-78
2023/03/27 08:33:44;;;;;;;9.80;2.87;;;;;;;10.23;41.47;98863.06;7051691;28;20262;-78
2023/03/27 08:37:07;;;;;;;8.27;3.13;;;;;;;10.04;42.18;98867.31;7051876;28;20207;-78
2023/03/27 08:40:32;;;;;;;11.27;3.13;;;;;;;9.93;43.04;98872.41;7077731;28;20618;-78
2023/03/27 08:43:56;;;;;;;9.70;3.60;;;;;;;10.00;41.73;98847.19;7079247;28;20318;-78
2023/03/27 08:47:20;;;;;;;6.47;2.80;;;;;;;9.70;42.05;98858.41;7072715;28;20230;-77
2023/03/27 08:50:44;;;;;;;6.10;2.67;;;;;;;10.13;41.97;98871.50;7078865;28;20627;-79
2023/03/27 08:54:08;;;;;;;5.17;2.87;;;;;;;10.44;39.92;98817.94;7079262;28;20223;-77
2023/03/27 08:57:31;;;;;;;6.43;2.60;;;;;;;11.57;39.94;98881.50;7079223;28;20259;-77
2023/03/27 09:00:59;;;;;;;5.77;2.57;;;;;;;11.22;39.24;98877.34;7078195;28;20214;-78
2023/03/27 09:04:34;;;;;;;5.73;2.67;;;;;;;12.12;37.17;98883.72;7078536;28;20279;-77
2023/03/27 09:08:05;;;;;;;5.90;2.97;;;;;;;10.29;38.95;98908.91;7079228;28;20271;-79
2023/03/27 09:11:35;;;;;;;3.60;2.67;;;;;;;11.20;38.13;98902.88;7078670;27;20309;-82
2023/03/27 09:14:58;;;;;;;8.77;2.60;;;;;;;10.71;38.32;98907.78;7084266;27;20558;-83
2023/03/27 09:18:26;;;;;;;8.80;2.30;;;;;;;11.63;36.77;98915.78;7085214;27;20658;-79
2023/03/27 09:21:49;;;;;;;7.03;2.30;;;;;;;12.17;38.42;98910.09;7084698;27;20713;-82
2023/03/27 09:25:19;;;;;;;9.50;3.70;;;;;;;13.06;37.57;98911.78;7085660;27;20726;-82
2023/03/27 09:28:50;;;;;;;9.43;4.63;;;;;;;13.00;37.54;98910.78;7085148;27;20303;-77
2023/03/27 09:32:14;;;;;;;6.20;2.50;;;;;;;12.59;35.24;98923.03;7087806;27;20223;-78
2023/03/27 09:35:37;;;;;;;3.73;2.20;;;;;;;10.75;36.87;98914.44;7079599;27;20203;-77
2023/03/27 09:39:06;;;;;;;3.87;2.30;;;;;;;11.64;37.07;98944.47;7084747;27;20211;-76
2023/03/27 09:42:31;;;;;;;5.77;2.47;;;;;;;11.30;38.04;98919.50;7084068;27;20231;-84
2023/03/27 09:45:53;;;;;;;6.07;2.60;;;;;;;11.72;37.55;98943.41;7084232;27;20284;-77
2023/03/27 09:49:18;;;;;;;7.67;2.80;;;;;;;10.66;37.55;98945.31;7083886;27;20787;-77
2023/03/27 09:52:42;;;;;;;6.07;2.37;;;;;;;10.82;36.64;98948.50;7081719;27;20705;-77
2023/03/27 09:56:06;;;;;;;5.67;2.30;;;;;;;11.33;37.57;98948.81;7082415;27;20219;-76
2023/03/27 09:59:29;;;;;;;4.67;2.30;;;;;;;11.50;37.36;98952.72;7082564;27;20204;-76
2023/03/27 10:02:59;;;;;;;3.13;2.30;;;;;;;11.29;36.00;98964.59;7082604;27;20307;-76
2023/03/27 10:06:26;;;;;;;6.37;2.30;;;;;;;11.58;36.20;98968.75;7067439;27;20227;-78
2023/03/27 10:10:04;;;;;;;4.17;2.50;;;;;;;11.44;35.90;98965.19;7082575;27;20364;-80
2023/03/27 10:13:28;;;;;;;8.73;2.97;;;;;;;10.69;38.83;98970.00;7083560;27;20227;-79
2023/03/27 10:16:49;;;;;;;4.10;2.13;;;;;;;10.85;37.40;98966.97;7083160;27;20259;-79
2023/03/27 10:20:13;;;;;;;6.10;2.13;;;;;;;10.45;38.23;98975.91;7081598;27;20196;-77
2023/03/27 10:23:41;;;;;;;6.43;2.57;;;;;;;10.75;36.99;98987.25;7081698;27;20219;-77
2023/03/27 10:27:10;;;;;;;5.70;2.43;;;;;;;11.31;37.36;98953.56;7082234;27;20717;-77
2023/03/27 10:30:34;;;;;;;4.70;2.50;;;;;;;9.92;38.14;98995.47;7079128;27;20249;-77
2023/03/27 10:33:56;;;;;;;3.87;2.30;;;;;;;9.77;36.87;98991.19;7082024;27;20255;-77
2023/03/27 10:37:21;;;;;;;5.80;3.07;;;;;;;10.93;38.17;98993.75;7082454;27;20212;-77
2023/03/27 10:40:44;;;;;;;8.30;2.77;;;;;;;11.77;35.33;98992.25;7080112;27;20349;-77
2023/03/27 10:44:16;;;;;;;6.30;3.50;;;;;;;11.42;34.73;98982.66;7081692;27;20224;-77
2023/03/27 10:47:37;;;;;;;7.17;3.60;;;;;;;11.03;36.21;98985.28;7082244;27;20192;-77
2023/03/27 10:51:04;;;;;;;6.83;3.10;;;;;;;11.22;34.17;98995.28;7081105;27;20352;-78
2023/03/27 10:54:34;;;;;;;8.43;2.77;;;;;;;11.01;33.91;98985.47;7074923;27;20271;-77
2023/03/27 10:57:58;;;;;;;5.70;2.50;;;;;;;11.49;31.95;99007.78;7082024;27;20191;-77
2023/03/27 11:01:26;;;;;;;5.83;2.53;;;;;;;12.23;31.83;98998.44;7079483;27;20239;-77
2023/03/27 11:04:51;;;;;;;3.27;2.00;;;;;;;12.41;32.61;99001.31;7054937;27;20203;-78
2023/03/27 11:08:16;;;;;;;6.70;2.77;;;;;;;13.05;32.66;98999.44;7053134;28;20390;-78
2023/03/27 11:11:40;;;;;;;5.70;2.30;;;;;;;12.01;33.67;98983.50;7052258;28;20208;-77
2023/03/27 11:15:06;;;;;;;6.90;2.40;;;;;;;11.81;32.68;99012.41;7052885;28;20220;-77
2023/03/27 11:18:31;;;;;;;3.87;2.80;;;;;;;11.67;32.52;99002.63;7055233;27;20753;-78
2023/03/27 11:21:54;;;;;;;3.03;2.27;;;;;;;11.75;30.87;99014.06;7058455;27;20318;-77
2023/03/27 11:25:19;;;;;;;3.73;2.10;;;;;;;12.33;30.80;99015.06;7052000;28;20555;-77
2023/03/27 11:28:45;;;;;;;3.57;2.13;;;;;;;12.01;31.24;99018.63;7053470;28;20235;-77
2023/03/27 11:32:16;;;;;;;3.47;2.10;;;;;;;12.63;31.86;99029.78;7055972;28;20227;-77
2023/03/27 11:35:41;;;;;;;6.23;2.67;;;;;;;12.50;31.84;99014.41;7051652;27;20210;-77
2023/03/27 11:39:12;;;;;;;45.70;24.27;;;;;;;12.84;32.52;99021.34;7052678;28;20197;-75
2023/03/27 11:42:36;;;;;;;9.53;4.47;;;;;;;12.69;32.41;99037.03;7053001;28;20224;-76
2023/03/27 11:46:10;;;;;;;4.53;3.30;;;;;;;12.13;32.34;99046.69;7051798;28;20548;-77
2023/03/27 11:49:50;;;;;;;15.60;8.30;;;;;;;13.33;30.29;99046.78;7051680;28;20371;-73
2023/03/27 11:53:33;;;;;;;9.23;4.77;;;;;;;12.81;31.09;99036.13;7058243;27;20234;-76
2023/03/27 11:56:56;;;;;;;7.47;4.93;;;;;;;12.71;31.77;99033.06;7052259;28;20656;-77
2023/03/27 12:00:24;;;;;;;5.33;3.30;;;;;;;12.71;31.77;99021.41;7051223;28;20209;-75
2023/03/27 12:04:08;;;;;;;2.73;2.07;;;;;;;12.52;28.96;99033.94;7050926;28;20312;-75
2023/03/27 12:07:40;;;;;;;8.27;4.20;;;;;;;12.46;31.45;99034.78;7059561;27;20209;-75
2023/03/27 12:11:04;;;;;;;4.27;2.40;;;;;;;12.92;30.71;99034.66;7077888;27;20201;-76
2023/03/27 12:14:46;;;;;;;5.13;2.90;;;;;;;13.02;31.57;99037.75;7078665;27;20225;-74
2023/03/27 12:18:17;;;;;;;4.57;3.23;;;;;;;12.38;33.14;99036.88;7079409;27;20288;-75
2023/03/27 12:21:47;;;;;;;3.93;2.80;;;;;;;12.95;30.06;99043.22;7077636;27;20241;-75
2023/03/27 12:25:25;;;;;;;4.53;2.20;;;;;;;12.69;31.07;99042.44;7079044;27;20343;-77
2023/03/27 12:28:59;;;;;;;4.23;2.30;;;;;;;12.25;30.86;99053.97;7049269;28;20643;-76
2023/03/27 12:32:44;;;;;;;3.50;2.53;;;;;;;12.25;30.88;99061.22;7049418;28;20238;-76
2023/03/27 12:36:07;;;;;;;4.23;2.40;;;;;;;11.52;32.06;99040.59;7049205;28;20242;-76
2023/03/27 12:39:29;;;;;;;4.03;2.60;;;;;;;11.86;32.56;99023.44;7050773;28;20654;-76
2023/03/27 12:42:52;;;;;;;5.03;2.30;;;;;;;11.98;33.16;99046.09;7049719;28;20220;-75
2023/03/27 12:46:32;;;;;;;3.03;2.20;;;;;;;12.73;31.78;99038.25;7049257;28;20204;-76
2023/03/27 12:49:57;;;;;;;3.27;2.07;;;;;;;12.92;32.53;99035.47;7055548;28;20224;-75
2023/03/27 12:53:20;;;;;;;5.17;2.30;;;;;;;14.09;31.10;99028.53;7055771;28;20234;-76
2023/03/27 12:56:41;;;;;;;5.87;1.90;;;;;;;14.26;31.65;99027.75;7056342;28;20260;-76
2023/03/27 13:00:09;;;;;;;6.47;2.20;;;;;;;13.58;30.95;99034.09;7055370;28;20297;-76
2023/03/27 13:03:42;;;;;;;7.07;2.27;;;;;;;12.76;30.94;99030.53;7055176;27;20226;-76
2023/03/27 13:07:07;;;;;;;3.43;2.20;;;;;;;12.88;31.46;99028.00;7060622;27;20222;-74
2023/03/27 13:10:43;;;;;;;3.07;1.80;;;;;;;12.47;30.98;99032.91;7061368;27;20227;-76
2023/03/27 13:14:27;;;;;;;5.30;2.37;;;;;;;12.02;31.89;99050.84;7084608;27;20222;-75
2023/03/27 13:18:06;;;;;;;4.90;3.27;;;;;;;12.16;32.51;99051.69;7070723;27;21031;-75
2023/03/27 13:21:35;;;;;;;4.60;2.17;;;;;;;11.92;33.31;99063.13;7072265;27;20688;-76
2023/03/27 13:25:17;;;;;;;5.30;2.40;;;;;;;11.78;34.17;99074.94;7053452;28;20212;-74
2023/03/27 13:28:41;;;;;;;6.47;1.93;;;;;;;10.37;41.37;99123.50;7054683;28;20350;-75
2023/03/27 13:32:04;;;;;;;4.00;2.60;;;;;;;9.83;45.18;99116.97;7054244;27;20232;-76
2023/03/27 13:35:32;;;;;;;4.90;2.83;;;;;;;9.21;47.50;99126.66;7082957;27;20581;-75
2023/03/27 13:39:19;;;;;;;3.73;2.47;;;;;;;8.60;50.77;99137.81;7083581;27;20620;-76
2023/03/27 13:42:43;;;;;;;4.83;2.47;;;;;;;8.84;50.69;99145.59;7082295;27;20572;-74
2023/03/27 13:46:07;;;;;;;5.43;2.50;;;;;;;8.20;52.32;99078.31;7083230;27;20240;-76
2023/03/27 13:49:50;;;;;;;4.73;2.73;;;;;;;8.90;52.25;99160.19;7083374;27;20223;-77
2023/03/27 13:53:22;;;;;;;4.43;2.70;;;;;;;8.72;51.65;99168.59;7084968;27;20303;-75
2023/03/27 13:56:53;;;;;;;5.43;2.83;;;;;;;8.67;52.80;99179.06;7083185;27;20210;-75
2023/03/27 14:00:26;;;;;;;5.30;2.90;;;;;;;9.41;53.51;99166.25;7061726;27;20199;-77
2023/03/27 14:04:08;;;;;;;7.93;2.70;;;;;;;9.88;51.63;99155.78;7054493;27;20891;-75
2023/03/27 14:07:44;;;;;;;6.93;3.20;;;;;;;10.16;50.93;99162.06;7072490;27;20231;-75
2023/03/27 14:11:32;;;;;;;8.93;4.20;;;;;;;10.26;50.56;99159.06;7081064;27;20680;-77
2023/03/27 14:15:12;;;;;;;6.13;2.87;;;;;;;10.67;49.59;99152.75;7079632;27;22160;-77
2023/03/27 14:18:55;;;;;;;3.80;2.73;;;;;;;9.95;49.03;99170.16;7057300;28;20235;-76
2023/03/27 14:22:21;;;;;;;9.30;3.43;;;;;;;9.75;49.57;99177.19;7053253;28;20330;-76
2023/03/27 14:25:46;;;;;;;4.40;2.57;;;;;;;9.96;48.14;99179.06;7053794;28;20208;-77
2023/03/27 14:29:09;;;;;;;6.23;2.87;;;;;;;9.69;46.88;99177.13;7053772;28;20712;-75
2023/03/27 14:32:32;;;;;;;19.00;15.07;;;;;;;9.59;48.49;99174.75;7052523;28;20289;-76
2023/03/27 14:35:56;;;;;;;19.30;13.70;;;;;;;10.75;46.33;99182.25;7052961;28;20212;-75
2023/03/27 14:39:20;;;;;;;13.93;10.10;;;;;;;10.64;46.34;99177.41;7052488;28;20263;-76
2023/03/27 14:42:46;;;;;;;6.57;4.87;;;;;;;10.82;47.36;99168.81;7053400;28;20251;-76
2023/03/27 14:46:08;;;;;;;7.10;4.90;;;;;;;10.35;48.39;99180.31;7053633;28;20290;-77
2023/03/27 14:49:35;;;;;;;6.23;3.60;;;;;;;10.45;47.05;99171.88;7064515;27;20268;-76
2023/03/27 14:52:58;;;;;;;5.60;3.53;;;;;;;10.19;47.55;99182.41;7081408;27;20231;-76
2023/03/27 14:56:24;;;;;;;2.87;2.60;;;;;;;10.36;47.79;99183.81;7081842;27;20275;-77
2023/03/27 14:59:46;;;;;;;5.93;3.80;;;;;;;10.44;48.25;99189.91;7081486;27;20204;-77
2023/03/27 15:03:13;;;;;;;9.23;3.73;;;;;;;10.28;48.24;99198.25;7081351;27;20740;-77
2023/03/27 15:06:37;;;;;;;4.90;3.43;;;;;;;10.22;48.43;99180.16;7078694;27;20220;-77
2023/03/27 15:10:06;;;;;;;5.73;3.77;;;;;;;10.58;46.90;99177.38;7085011;27;20230;-77
2023/03/27 15:13:34;;;;;;;5.17;3.40;;;;;;;10.70;46.43;99178.50;7059784;27;20223;-76
2023/03/27 15:16:58;;;;;;;5.03;4.47;;;;;;;11.12;44.61;99181.88;7076744;27;20650;-76
2023/03/27 15:20:23;;;;;;;4.00;2.63;;;;;;;10.90;44.28;99176.75;7080633;27;20688;-75
2023/03/27 15:23:50;;;;;;;6.50;2.40;;;;;;;10.54;44.29;99185.00;7074653;27;20231;-75
2023/03/27 15:27:17;;;;;;;3.23;2.33;;;;;;;10.73;44.61;99173.53;7060300;27;20737;-75
2023/03/27 15:30:43;;;;;;;8.37;2.57;;;;;;;11.09;43.41;99174.16;7079669;27;20211;-75
2023/03/27 15:34:07;;;;;;;4.30;2.30;;;;;;;10.53;43.10;99183.34;7078414;27;20314;-75
2023/03/27 15:37:29;;;;;;;6.57;2.63;;;;;;;10.83;43.36;99183.97;7050761;28;20240;-76
2023/03/27 15:41:00;;;;;;;4.43;2.80;;;;;;;11.04;43.11;99184.72;7051884;28;20212;-76
2023/03/27 15:44:24;;;;;;;6.27;3.30;;;;;;;11.04;43.93;99182.03;7053518;27;20280;-75
2023/03/27 15:47:58;;;;;;;5.70;2.70;;;;;;;11.07;43.76;99186.19;7052324;28;20208;-76
2023/03/27 15:51:28;;;;;;;5.17;2.43;;;;;;;10.86;44.20;99197.91;7061493;27;20223;-75
2023/03/27 15:54:53;;;;;;;6.00;2.70;;;;;;;11.31;42.94;99174.91;7062650;27;20239;-76
2023/03/27 15:58:23;;;;;;;2.97;2.33;;;;;;;10.79;42.61;99193.47;7080793;27;20195;-77
2023/03/27 16:01:50;;;;;;;4.77;2.53;;;;;;;11.20;41.56;99197.06;7082311;27;20312;-79
2023/03/27 16:05:15;;;;;;;3.03;2.47;;;;;;;11.49;41.57;99196.78;7052225;28;20204;-76
2023/03/27 16:08:39;;;;;;;4.03;2.30;;;;;;;11.27;42.46;99204.16;7051638;28;20208;-77
2023/03/27 16:12:01;;;;;;;4.23;2.60;;;;;;;11.11;42.15;99196.38;7054503;27;20219;-76